Time;durP1;ratioP1;P1;durP2;ratioP2;P2;SDS_P1;SDS_P2;PMS_P1;PMS_P2;Temp;Humidity;BMP_temperature;BMP_pressure;BME280_temperature;BME280_humidity;BME280_pressure;Samples;Min_cycle;Max_cycle;Signal;HPM_P1;HPM_P2
2022/05/18 00:01:30;;;;;;;9.23;6.88;;;;;;;16.40;70.70;101797.31;4967587;28;20029;-57
2022/05/18 00:03:55;;;;;;;13.00;6.80;;;;;;;16.40;71.12;101800.00;4966218;28;20436;-56
2022/05/18 00:06:20;;;;;;;8.82;6.90;;;;;;;16.41;70.81;101804.34;4970241;28;20528;-57
2022/05/18 00:08:46;;;;;;;11.55;7.28;;;;;;;16.52;70.88;101804.91;4972997;28;20026;-57
2022/05/18 00:11:17;;;;;;;12.20;7.10;;;;;;;16.44;70.59;101808.50;4967848;28;20034;-56
2022/05/18 00:13:44;;;;;;;11.02;6.75;;;;;;;16.35;70.88;101810.47;4975794;28;20507;-56
2022/05/18 00:16:10;;;;;;;11.27;7.07;;;;;;;16.34;70.91;101800.75;4963239;28;20030;-55
2022/05/18 00:18:36;;;;;;;13.55;7.50;;;;;;;16.32;71.04;101804.63;4974151;28;20085;-56
2022/05/18 00:21:03;;;;;;;10.07;7.40;;;;;;;16.36;71.59;101809.44;4962818;28;20027;-55
2022/05/18 00:23:29;;;;;;;10.80;7.03;;;;;;;16.39;71.55;101809.06;4975144;28;20022;-56
2022/05/18 00:25:54;;;;;;;14.18;8.48;;;;;;;16.33;71.57;101817.84;4971467;28;20030;-56
2022/05/18 00:28:20;;;;;;;11.85;8.23;;;;;;;16.35;71.90;101812.31;4969202;28;20023;-56
2022/05/18 00:30:45;;;;;;;10.05;7.35;;;;;;;16.29;71.67;101813.88;4966708;28;20053;-56
2022/05/18 00:33:10;;;;;;;8.93;7.68;;;;;;;16.47;71.68;101809.97;4968122;28;20062;-56
2022/05/18 00:35:38;;;;;;;13.27;8.10;;;;;;;16.38;71.87;101814.63;4973284;28;20048;-54
2022/05/18 00:38:05;;;;;;;12.32;8.13;;;;;;;16.42;71.63;101813.22;4968312;28;20424;-56
2022/05/18 00:40:31;;;;;;;13.68;8.70;;;;;;;16.53;71.83;101811.94;4964463;28;20121;-56
2022/05/18 00:42:57;;;;;;;11.02;8.15;;;;;;;16.48;71.67;101811.63;4966654;28;20500;-56
2022/05/18 00:45:24;;;;;;;11.55;8.15;;;;;;;16.41;71.78;101811.56;4972540;28;20065;-55
2022/05/18 00:47:50;;;;;;;11.25;8.05;;;;;;;16.36;72.20;101804.06;4969844;28;20033;-55
2022/05/18 00:50:20;;;;;;;11.63;8.20;;;;;;;16.22;72.20;101815.63;4969285;28;20035;-56
2022/05/18 00:52:49;;;;;;;10.35;8.45;;;;;;;16.17;71.91;101817.19;4970617;28;20026;-56
2022/05/18 00:55:16;;;;;;;;;;;;;;;16.42;71.83;101811.38;4972636;28;20031;-56
2022/05/18 00:57:49;;;;;;;12.85;8.60;;;;;;;16.29;72.30;101810.38;4969687;28;19953;-56
2022/05/18 01:00:18;;;;;;;11.32;8.07;;;;;;;16.24;72.25;101813.59;4968244;28;20027;-56
2022/05/18 01:02:51;;;;;;;12.30;7.20;;;;;;;16.22;72.68;101821.00;4966615;28;20023;-55
2022/05/18 01:05:20;;;;;;;11.43;7.00;;;;;;;16.26;72.73;101811.56;4968320;28;20537;-56
2022/05/18 01:07:50;;;;;;;12.20;7.47;;;;;;;16.21;72.79;101821.19;4972291;28;20033;-56
2022/05/18 01:10:15;;;;;;;9.38;7.55;;;;;;;16.24;72.68;101818.97;4966934;28;20038;-55
2022/05/18 01:12:41;;;;;;;11.02;7.97;;;;;;;16.23;72.70;101819.97;4970064;28;20026;-56
2022/05/18 01:15:12;;;;;;;10.88;8.48;;;;;;;16.21;72.88;101819.34;4968482;28;20031;-55
2022/05/18 01:17:40;;;;;;;12.63;8.90;;;;;;;16.19;73.00;101817.81;4973347;28;20510;-55
2022/05/18 01:20:12;;;;;;;12.70;8.80;;;;;;;16.21;73.34;101818.50;4962101;28;20201;-56
2022/05/18 01:23:15;;;;;;;16.38;8.77;;;;;;;16.29;73.26;101818.41;4964228;28;20042;-55
2022/05/18 01:25:54;;;;;;;10.73;8.23;;;;;;;16.19;73.00;101816.00;4964342;28;20030;-56
2022/05/18 01:28:22;;;;;;;12.20;8.65;;;;;;;16.11;73.05;101810.72;4968052;28;20119;-56
2022/05/18 01:30:48;;;;;;;12.23;9.38;;;;;;;16.08;73.40;101811.91;4960333;28;20034;-56
2022/05/18 01:33:17;;;;;;;16.85;10.27;;;;;;;16.15;73.85;101819.22;4968054;28;20030;-55
2022/05/18 01:35:46;;;;;;;13.98;9.32;;;;;;;16.16;73.55;101816.34;4967981;28;20124;-56
2022/05/18 01:38:13;;;;;;;11.27;9.25;;;;;;;16.16;73.58;101818.19;4968240;28;20035;-55
2022/05/18 01:40:41;;;;;;;13.73;9.80;;;;;;;16.24;73.76;101820.81;4970085;28;20042;-55
2022/05/18 01:43:34;;;;;;;18.08;10.10;;;;;;;16.28;74.17;101812.22;4966980;28;20038;-57
2022/05/18 01:46:08;;;;;;;12.55;9.90;;;;;;;16.30;73.58;101815.53;4971353;28;20045;-55
2022/05/18 01:48:37;;;;;;;12.35;9.43;;;;;;;16.26;73.61;101814.25;4976409;28;21221;-55
2022/05/18 01:51:04;;;;;;;11.85;8.98;;;;;;;16.27;73.63;101810.56;4965461;28;20054;-55
2022/05/18 01:53:31;;;;;;;9.75;8.60;;;;;;;16.19;73.49;101809.78;4975094;28;20022;-56
2022/05/18 01:55:56;;;;;;;13.35;9.50;;;;;;;16.17;73.53;101809.97;4970892;28;20033;-56
2022/05/18 01:58:22;;;;;;;14.93;9.15;;;;;;;16.17;73.85;101803.78;4965682;28;20035;-56
2022/05/18 02:00:49;;;;;;;12.95;8.93;;;;;;;16.19;74.00;101807.09;4967692;28;20031;-55
2022/05/18 02:03:14;;;;;;;13.15;9.20;;;;;;;16.15;73.63;101808.50;4967396;28;20061;-56
2022/05/18 02:05:41;;;;;;;14.35;8.85;;;;;;;16.09;73.78;101810.06;4970312;28;20030;-56
2022/05/18 02:08:07;;;;;;;11.02;8.43;;;;;;;16.01;73.65;101816.34;4971848;28;20237;-56
2022/05/18 02:10:33;;;;;;;11.13;8.52;;;;;;;16.09;73.68;101821.63;4966560;28;20030;-55
2022/05/18 02:12:58;;;;;;;10.63;8.32;;;;;;;16.03;73.96;101816.16;4967204;28;20110;-55
2022/05/18 02:15:24;;;;;;;14.18;9.43;;;;;;;16.00;74.01;101805.81;4969392;28;20380;-54
2022/05/18 02:17:50;;;;;;;13.30;10.10;;;;;;;16.01;74.21;101813.66;4972145;28;20400;-56
2022/05/18 02:20:16;;;;;;;14.43;9.57;;;;;;;15.99;73.95;101810.34;4968458;28;20035;-56
2022/05/18 02:22:41;;;;;;;14.55;9.63;;;;;;;15.97;74.03;101807.00;4968612;28;20040;-55
2022/05/18 02:25:07;;;;;;;13.95;10.00;;;;;;;16.03;74.00;101805.44;4968165;28;20496;-55
2022/05/18 02:27:32;;;;;;;18.65;10.52;;;;;;;16.02;74.13;101799.25;4967831;28;20031;-55
2022/05/18 02:29:57;;;;;;;13.70;9.27;;;;;;;15.91;73.91;101798.88;4967988;28;20118;-52
2022/05/18 02:32:23;;;;;;;14.23;9.70;;;;;;;15.90;73.69;101794.50;4967782;28;20101;-55
2022/05/18 02:34:48;;;;;;;14.88;11.50;;;;;;;15.87;73.99;101802.91;4973976;28;20035;-55
2022/05/18 02:37:14;;;;;;;14.20;10.75;;;;;;;15.82;74.11;101808.81;4972825;28;20031;-54
2022/05/18 02:39:39;;;;;;;19.52;11.27;;;;;;;15.93;74.13;101804.88;4966521;28;20471;-55
2022/05/18 02:42:05;;;;;;;16.65;10.88;;;;;;;15.88;74.59;101804.56;4968008;28;20023;-55
2022/05/18 02:44:30;;;;;;;14.55;10.75;;;;;;;15.83;74.44;101801.59;4969305;28;20520;-55
2022/05/18 02:46:57;;;;;;;18.02;11.60;;;;;;;15.94;74.38;101804.69;4966909;28;20110;-55
2022/05/18 02:49:24;;;;;;;13.45;10.45;;;;;;;15.89;74.38;101799.03;4967066;28;20033;-54
2022/05/18 02:51:51;;;;;;;18.00;11.98;;;;;;;16.02;74.62;101798.41;4975039;28;20117;-56
2022/05/18 02:57:02;;;;;;;16.45;12.95;;;;;;;16.09;74.66;101804.69;4968370;28;20571;-54
2022/05/18 02:59:27;;;;;;;18.77;12.95;;;;;;;16.16;74.73;101799.44;4967373;28;20031;-56
2022/05/18 03:01:53;;;;;;;18.13;12.80;;;;;;;16.22;74.83;101799.56;4967693;28;20033;-55
2022/05/18 03:04:18;;;;;;;17.90;12.10;;;;;;;16.23;74.35;101801.22;4972761;28;20113;-53
2022/05/18 03:06:44;;;;;;;20.55;11.77;;;;;;;16.23;74.28;101805.75;4970482;28;20037;-55
2022/05/18 03:09:09;;;;;;;35.88;11.68;;;;;;;16.27;74.18;101807.88;4963316;28;20036;-52
2022/05/18 03:11:35;;;;;;;18.20;11.88;;;;;;;16.26;74.34;101819.63;4967563;28;20033;-53
2022/05/18 03:14:00;;;;;;;17.90;10.75;;;;;;;16.32;74.45;101812.69;4974309;28;20060;-55
2022/05/18 03:16:27;;;;;;;16.65;11.15;;;;;;;16.34;74.09;101819.50;4966008;28;20076;-53
2022/05/18 03:18:52;;;;;;;16.05;11.30;;;;;;;16.33;74.18;101817.84;4970480;28;20026;-55
2022/05/18 03:24:02;;;;;;;16.10;10.93;;;;;;;16.40;74.30;101828.66;4972865;28;20146;-55
2022/05/18 03:26:28;;;;;;;19.55;11.23;;;;;;;16.43;73.86;101829.13;4970081;28;20058;-55
2022/05/18 03:28:56;;;;;;;21.52;10.85;;;;;;;16.48;73.85;101827.72;4970003;28;20082;-54
2022/05/18 03:31:22;;;;;;;19.17;10.68;;;;;;;16.49;73.77;101832.94;4968123;28;20082;-54
2022/05/18 03:33:48;;;;;;;14.43;10.02;;;;;;;16.53;73.69;101836.09;4971536;28;20500;-55
2022/05/18 03:36:15;;;;;;;16.10;10.40;;;;;;;16.55;73.57;101842.91;4969561;28;20095;-54
2022/05/18 03:38:43;;;;;;;19.75;10.45;;;;;;;16.57;73.40;101840.06;4965691;28;20027;-52
2022/05/18 03:41:08;;;;;;;16.35;10.32;;;;;;;16.60;73.55;101845.88;4971704;28;20117;-54
2022/05/18 03:43:34;;;;;;;15.23;10.55;;;;;;;16.62;73.34;101843.00;4970268;28;20023;-55
2022/05/18 03:45:59;;;;;;;17.90;10.68;;;;;;;16.63;73.78;101844.66;4965509;28;20062;-52
2022/05/18 03:48:25;;;;;;;16.70;10.35;;;;;;;16.64;73.26;101839.13;4968895;28;20116;-53
2022/05/18 03:50:52;;;;;;;20.13;10.50;;;;;;;16.62;73.44;101838.47;4968101;28;20037;-54
2022/05/18 03:53:17;;;;;;;15.50;10.30;;;;;;;16.62;73.79;101835.78;4969144;28;20038;-53
2022/05/18 03:55:44;;;;;;;19.40;11.02;;;;;;;16.62;73.56;101833.09;4970135;28;20030;-55
2022/05/18 03:58:10;;;;;;;16.85;11.18;;;;;;;16.62;73.62;101841.16;4963470;28;20038;-54
2022/05/18 04:00:36;;;;;;;16.35;10.35;;;;;;;16.63;73.91;101839.31;4973443;28;20035;-55
2022/05/18 04:03:02;;;;;;;15.05;10.48;;;;;;;16.66;73.49;101844.31;4963811;28;20412;-55
2022/05/18 04:05:28;;;;;;;16.20;10.32;;;;;;;16.66;73.95;101847.84;4970318;28;20026;-54
2022/05/18 04:07:54;;;;;;;18.10;10.30;;;;;;;16.68;73.90;101847.66;4969422;28;20027;-54
2022/05/18 04:10:19;;;;;;;16.40;10.57;;;;;;;16.71;73.75;101847.28;4970618;28;20030;-55
2022/05/18 04:12:45;;;;;;;18.73;10.57;;;;;;;16.75;73.51;101840.50;4969027;28;20550;-54
2022/05/18 04:15:16;;;;;;;19.98;11.13;;;;;;;16.77;73.92;101851.91;4970288;28;20030;-54
2022/05/18 04:17:46;;;;;;;15.05;10.32;;;;;;;16.72;73.65;101835.53;4969512;28;20019;-55
2022/05/18 04:20:14;;;;;;;28.98;10.68;;;;;;;16.81;73.88;101847.84;4970690;28;20026;-54
2022/05/18 04:22:40;;;;;;;18.33;10.48;;;;;;;16.84;73.81;101849.31;4969218;28;20026;-54
2022/05/18 04:25:05;;;;;;;20.02;11.02;;;;;;;16.86;73.54;101853.47;4970851;28;20169;-55
2022/05/18 04:27:31;;;;;;;18.73;10.88;;;;;;;16.88;73.57;101862.16;4969337;28;20027;-55
2022/05/18 04:29:57;;;;;;;14.50;10.85;;;;;;;16.91;73.49;101858.28;4967480;28;20045;-54
2022/05/18 04:32:23;;;;;;;20.60;11.13;;;;;;;16.92;73.53;101868.81;4969753;28;20104;-55
2022/05/18 04:34:49;;;;;;;18.02;10.80;;;;;;;16.99;73.59;101868.88;4967802;28;20468;-52
2022/05/18 04:37:15;;;;;;;16.92;10.48;;;;;;;17.02;73.82;101866.66;4970543;28;20038;-55
2022/05/18 04:39:41;;;;;;;20.42;11.27;;;;;;;17.09;73.70;101860.56;4974313;28;20022;-55
2022/05/18 04:42:06;;;;;;;19.40;10.40;;;;;;;17.13;73.63;101859.16;4969927;28;20084;-55
2022/05/18 04:44:32;;;;;;;15.63;10.57;;;;;;;17.17;73.59;101857.75;4965857;28;20030;-54
2022/05/18 04:46:58;;;;;;;15.38;10.57;;;;;;;17.19;73.57;101861.09;4962080;28;20125;-54
2022/05/18 04:49:24;;;;;;;17.08;10.60;;;;;;;17.21;73.70;101864.41;4967655;28;20436;-54
2022/05/18 04:51:50;;;;;;;17.83;10.48;;;;;;;17.26;73.62;101872.72;4966249;28;20034;-55
2022/05/18 04:54:15;;;;;;;16.33;10.63;;;;;;;17.30;73.59;101868.63;4963590;28;20034;-55
2022/05/18 04:56:40;;;;;;;16.38;10.48;;;;;;;17.32;73.81;101870.09;4968429;28;20022;-55
2022/05/18 04:59:05;;;;;;;16.95;9.80;;;;;;;17.35;73.54;101879.66;4965953;28;20404;-53
2022/05/18 05:01:31;;;;;;;14.88;10.60;;;;;;;17.41;73.65;101886.13;4966927;28;20026;-54
2022/05/18 05:03:56;;;;;;;15.38;9.77;;;;;;;17.43;73.13;101894.81;4963089;28;20030;-55
2022/05/18 05:06:21;;;;;;;12.70;9.98;;;;;;;17.41;72.78;101900.38;4964219;28;20039;-55
2022/05/18 05:08:46;;;;;;;12.50;10.00;;;;;;;17.39;73.20;101894.38;4965540;28;20497;-55
2022/05/18 05:11:12;;;;;;;15.25;9.77;;;;;;;17.43;72.88;101902.88;4967375;28;20030;-55
2022/05/18 05:13:37;;;;;;;14.60;10.18;;;;;;;17.45;72.94;101895.47;4976632;28;20373;-55
2022/05/18 05:16:05;;;;;;;14.73;9.68;;;;;;;17.53;73.23;101892.66;4967561;28;20110;-54
2022/05/18 05:18:31;;;;;;;27.23;9.98;;;;;;;17.61;72.82;101893.34;4969249;28;20022;-55
2022/05/18 05:20:57;;;;;;;18.55;10.35;;;;;;;17.69;72.77;101897.00;4969559;28;20238;-55
2022/05/18 05:23:24;;;;;;;19.45;10.95;;;;;;;17.82;72.41;101902.47;4969685;28;20031;-55
2022/05/18 05:25:50;;;;;;;14.35;9.93;;;;;;;17.94;72.64;101912.53;4973181;28;20054;-55
2022/05/18 05:28:15;;;;;;;15.88;10.27;;;;;;;18.03;72.08;101917.78;4973394;28;20037;-55
2022/05/18 05:30:41;;;;;;;17.42;9.77;;;;;;;18.15;72.13;101919.72;4969376;28;20019;-55
2022/05/18 05:33:06;;;;;;;19.60;10.18;;;;;;;18.20;72.07;101919.13;4968405;28;20105;-55
2022/05/18 05:35:31;;;;;;;16.52;9.90;;;;;;;18.25;71.53;101922.94;4970742;28;20031;-55
2022/05/18 05:37:57;;;;;;;13.40;9.18;;;;;;;18.29;70.98;101919.84;4973031;28;20031;-55
2022/05/18 05:40:24;;;;;;;13.68;9.18;;;;;;;18.27;70.43;101920.03;4969142;28;20526;-55
2022/05/18 05:42:49;;;;;;;14.02;8.98;;;;;;;18.32;69.98;101930.22;4967856;28;20019;-56
2022/05/18 05:45:14;;;;;;;16.02;9.82;;;;;;;18.37;70.14;101933.16;4972667;28;20046;-55
2022/05/18 05:47:40;;;;;;;15.77;9.60;;;;;;;18.41;69.96;101927.19;4974583;28;20048;-55
2022/05/18 05:50:06;;;;;;;16.60;9.80;;;;;;;18.47;70.17;101933.63;4967447;28;20026;-55
2022/05/18 05:52:31;;;;;;;19.52;9.30;;;;;;;18.52;70.09;101941.97;4971595;28;20031;-55
2022/05/18 05:54:57;;;;;;;16.73;9.10;;;;;;;18.56;69.79;101936.00;4969540;28;20101;-55
2022/05/18 05:57:22;;;;;;;11.77;8.45;;;;;;;18.63;69.85;101935.22;4969101;28;20033;-55
2022/05/18 05:59:47;;;;;;;12.10;8.55;;;;;;;18.66;69.56;101934.84;4966917;28;20488;-54
2022/05/18 06:02:15;;;;;;;12.70;8.20;;;;;;;18.65;69.05;101939.38;4966858;28;20065;-54
2022/05/18 06:04:41;;;;;;;9.38;7.63;;;;;;;18.71;69.37;101945.84;4965239;28;20456;-55
2022/05/18 06:07:06;;;;;;;13.00;7.57;;;;;;;18.76;69.30;101938.81;4968562;28;20035;-52
2022/05/18 06:09:32;;;;;;;10.88;7.35;;;;;;;18.82;68.67;101946.13;4970803;28;20448;-54
2022/05/18 06:11:58;;;;;;;12.95;7.32;;;;;;;18.88;68.66;101948.03;4967769;28;20385;-55
2022/05/18 06:14:23;;;;;;;11.05;6.93;;;;;;;18.95;68.59;101950.75;4968118;28;20019;-55
2022/05/18 06:16:48;;;;;;;12.52;7.30;;;;;;;18.96;68.70;101943.50;4966050;28;20027;-56
2022/05/18 06:19:15;;;;;;;12.98;7.13;;;;;;;19.04;68.48;101959.47;4972570;28;20038;-55
2022/05/18 06:21:41;;;;;;;11.63;6.97;;;;;;;19.09;68.01;101962.44;4969899;28;20034;-55
2022/05/18 06:24:06;;;;;;;12.70;7.40;;;;;;;19.12;68.00;101956.66;4972329;28;20081;-54
2022/05/18 06:26:32;;;;;;;10.85;6.80;;;;;;;19.14;67.86;101959.97;4970897;28;20448;-54
2022/05/18 06:28:57;;;;;;;12.73;7.20;;;;;;;19.16;67.72;101968.69;4972834;28;20027;-55
2022/05/18 06:31:23;;;;;;;12.10;6.70;;;;;;;19.19;67.43;101974.50;4968375;28;20030;-54
2022/05/18 06:33:48;;;;;;;11.43;7.13;;;;;;;19.20;67.36;101978.00;4972747;28;20014;-55
2022/05/18 06:36:14;;;;;;;11.93;6.43;;;;;;;19.22;67.01;101980.50;4974493;28;20039;-55
2022/05/18 06:38:39;;;;;;;10.45;6.43;;;;;;;19.23;66.61;101982.16;4959072;28;20058;-55
2022/05/18 06:41:22;;;;;;;13.07;7.05;;;;;;;19.22;66.54;101988.59;4968586;28;20049;-55
2022/05/18 06:43:54;;;;;;;13.07;6.68;;;;;;;19.24;66.55;101991.91;4972890;28;20080;-56
2022/05/18 06:46:20;;;;;;;11.32;7.22;;;;;;;19.25;66.22;101989.00;4979821;28;20026;-54
2022/05/18 06:48:46;;;;;;;11.40;7.70;;;;;;;19.26;66.28;101993.38;4968985;28;20033;-56
2022/05/18 06:51:12;;;;;;;13.60;7.60;;;;;;;19.24;66.35;101986.53;4969764;28;20074;-56
2022/05/18 06:53:38;;;;;;;16.77;8.32;;;;;;;19.22;66.50;101992.09;4968576;28;20023;-55
2022/05/18 06:56:03;;;;;;;13.13;8.23;;;;;;;19.24;66.20;101994.59;4971780;28;20089;-55
2022/05/18 06:58:29;;;;;;;12.90;8.25;;;;;;;19.23;66.12;101991.06;4970768;28;20030;-55
2022/05/18 07:00:54;;;;;;;13.73;8.73;;;;;;;19.22;66.08;101997.50;4971401;28;20019;-55
2022/05/18 07:03:19;;;;;;;15.43;8.98;;;;;;;19.26;66.08;102000.63;4970224;28;20112;-55
2022/05/18 07:05:44;;;;;;;14.38;8.95;;;;;;;19.35;66.23;102004.78;4970324;28;20041;-54
2022/05/18 07:08:10;;;;;;;17.08;9.32;;;;;;;19.42;66.17;102008.38;4972566;28;20026;-54
2022/05/18 07:10:36;;;;;;;16.95;10.00;;;;;;;19.48;66.14;102000.31;4974345;28;20035;-55
2022/05/18 07:13:01;;;;;;;14.40;9.90;;;;;;;19.65;65.91;102014.28;4969880;28;20027;-54
2022/05/18 07:15:27;;;;;;;19.05;10.20;;;;;;;19.79;65.71;102016.00;4970461;28;20034;-55
2022/05/18 07:17:52;;;;;;;18.83;10.98;;;;;;;19.93;65.12;102013.34;4968855;28;20030;-54
2022/05/18 07:20:17;;;;;;;23.55;11.93;;;;;;;20.11;65.36;102022.50;4970794;28;20038;-55
2022/05/18 07:22:43;;;;;;;18.42;11.73;;;;;;;20.21;64.34;102021.28;4969134;28;20491;-55
2022/05/18 07:25:08;;;;;;;22.30;12.75;;;;;;;20.23;63.65;102017.34;4969395;28;20109;-54
2022/05/18 07:27:34;;;;;;;19.33;12.38;;;;;;;20.23;63.51;102017.34;4971299;28;20031;-53
2022/05/18 07:29:59;;;;;;;21.80;12.07;;;;;;;20.40;64.49;102023.22;4973617;28;20481;-54
2022/05/18 07:32:25;;;;;;;17.00;11.55;;;;;;;20.51;64.45;102011.78;4968557;28;20049;-53
2022/05/18 07:34:50;;;;;;;18.80;10.20;;;;;;;20.61;64.14;102016.78;4970787;28;20420;-53
2022/05/18 07:37:19;;;;;;;15.75;10.05;;;;;;;20.70;63.80;102016.34;4969298;28;20262;-55
2022/05/18 07:39:44;;;;;;;14.45;10.23;;;;;;;20.67;63.49;102011.38;4970038;28;20109;-55
2022/05/18 07:42:09;;;;;;;16.02;10.25;;;;;;;20.67;63.37;102018.63;4970950;28;20054;-55
2022/05/18 07:44:36;;;;;;;14.75;10.40;;;;;;;20.61;63.60;102023.00;4969990;28;20046;-56
2022/05/18 07:47:03;;;;;;;19.15;9.93;;;;;;;20.70;64.04;102026.31;4969125;28;20035;-56
2022/05/18 07:49:32;;;;;;;16.35;10.20;;;;;;;20.89;64.41;102024.66;4971043;28;20066;-56
2022/05/18 07:51:58;;;;;;;18.10;10.77;;;;;;;20.91;63.55;102026.09;4969448;28;20041;-54
2022/05/18 07:54:23;;;;;;;16.52;10.63;;;;;;;20.96;63.45;102033.56;4971421;28;20097;-56
2022/05/18 07:56:48;;;;;;;18.17;10.57;;;;;;;21.01;62.92;102037.28;4970040;28;20443;-55
2022/05/18 07:59:14;;;;;;;18.25;10.93;;;;;;;21.04;63.29;102039.56;4970995;28;20038;-55
2022/05/18 08:01:40;;;;;;;13.98;10.65;;;;;;;21.07;63.58;102035.63;4969705;28;20081;-55
2022/05/18 08:04:05;;;;;;;16.40;10.55;;;;;;;21.07;63.06;102042.88;4970894;28;20102;-55
2022/05/18 08:06:30;;;;;;;14.20;10.48;;;;;;;21.04;63.12;102044.13;4970711;28;20487;-54
2022/05/18 08:08:56;;;;;;;20.98;11.32;;;;;;;20.99;63.30;102041.25;4969963;28;20441;-54
2022/05/18 08:16:50;;;;;;;25.67;12.05;;;;;;;21.09;64.16;102038.94;4963825;28;20234;-54
2022/05/18 08:19:16;;;;;;;20.75;11.65;;;;;;;21.19;64.46;102033.94;4970982;28;20026;-55
2022/05/18 08:21:42;;;;;;;16.58;11.43;;;;;;;21.32;64.54;102030.41;4969312;28;20031;-56
2022/05/18 08:24:08;;;;;;;16.88;10.68;;;;;;;21.51;64.63;102039.50;4969853;28;20186;-55
2022/05/18 08:26:34;;;;;;;23.45;14.40;;;;;;;21.60;64.15;102030.09;4968842;28;20038;-55
2022/05/18 08:29:01;;;;;;;16.10;10.20;;;;;;;21.60;63.75;102039.03;4970092;28;20018;-55
2022/05/18 08:31:27;;;;;;;18.45;11.05;;;;;;;21.57;63.43;102044.03;4970185;28;20026;-52
2022/05/18 08:33:55;;;;;;;16.77;11.30;;;;;;;21.54;63.15;102044.47;4969761;28;20041;-55
2022/05/18 08:36:23;;;;;;;19.33;11.73;;;;;;;21.63;62.79;102043.16;4962761;28;20442;-55
2022/05/18 08:38:49;;;;;;;18.80;10.63;;;;;;;21.76;63.62;102051.25;4969252;28;20074;-55
2022/05/18 08:41:25;;;;;;;15.05;10.32;;;;;;;21.88;63.18;102063.03;4969690;28;20484;-55
2022/05/18 08:43:57;;;;;;;18.65;11.32;;;;;;;21.95;63.15;102061.09;4969219;28;20038;-55
2022/05/18 08:46:50;;;;;;;16.15;11.35;;;;;;;22.05;62.67;102062.56;4966498;28;20022;-54
2022/05/18 08:49:36;;;;;;;16.38;11.38;;;;;;;22.20;62.79;102058.50;4968968;28;20084;-55
2022/05/18 08:52:21;;;;;;;14.75;11.38;;;;;;;22.27;62.55;102055.78;4970044;28;20034;-54
2022/05/18 08:55:24;;;;;;;18.30;12.02;;;;;;;22.30;62.16;102054.50;4965997;28;20043;-55
2022/05/18 08:57:52;;;;;;;17.70;11.95;;;;;;;22.43;62.46;102057.94;4968091;28;20054;-53
2022/05/18 09:00:29;;;;;;;18.70;12.65;;;;;;;22.52;62.40;102053.91;4969937;28;20029;-53
2022/05/18 09:03:16;;;;;;;15.98;11.10;;;;;;;22.72;62.47;102058.34;4966409;28;20027;-55
2022/05/18 09:05:57;;;;;;;13.13;8.23;;;;;;;22.93;61.55;102057.97;4966495;28;20026;-54
2022/05/18 09:08:35;;;;;;;13.00;6.07;;;;;;;23.09;60.49;102060.09;4965991;28;20748;-54
2022/05/18 09:11:02;;;;;;;9.33;6.37;;;;;;;23.20;60.13;102069.38;4967302;28;20439;-55
2022/05/18 09:13:28;;;;;;;10.32;7.00;;;;;;;23.35;59.61;102058.97;4968497;28;20791;-54
2022/05/18 09:16:12;;;;;;;12.20;7.22;;;;;;;23.48;59.47;102068.88;4969976;28;20026;-53
2022/05/18 09:18:59;;;;;;;9.00;5.05;;;;;;;23.55;58.70;102068.78;4966362;28;20037;-54
2022/05/18 09:21:47;;;;;;;6.78;4.70;;;;;;;23.72;58.22;102064.44;4967779;28;20027;-53
2022/05/18 09:24:20;;;;;;;;;;;;;;;23.92;58.02;102065.00;4966938;28;20448;-55
2022/05/18 09:27:10;;;;;;;10.30;6.72;;;;;;;24.29;58.41;102065.78;4968638;28;20000;-55
2022/05/18 09:30:09;;;;;;;9.98;4.82;;;;;;;24.23;56.98;102068.53;4967636;28;20042;-55
2022/05/18 09:32:47;;;;;;;8.13;4.78;;;;;;;23.98;56.19;102074.91;4968796;28;20051;-54
2022/05/18 09:35:29;;;;;;;9.00;5.00;;;;;;;23.92;56.51;102069.59;4964660;28;20097;-53
2022/05/18 09:38:36;;;;;;;7.38;4.47;;;;;;;23.84;56.61;102076.16;4966635;28;20046;-54
2022/05/18 09:41:06;;;;;;;7.72;3.25;;;;;;;23.80;56.77;102072.25;4951878;28;20636;-54
2022/05/18 09:43:46;;;;;;;8.75;2.85;;;;;;;23.91;55.73;102081.50;4961978;28;20130;-54
2022/05/18 09:46:16;;;;;;;3.53;2.47;;;;;;;23.93;54.78;102076.69;4969906;28;20042;-54
2022/05/18 09:48:54;;;;;;;5.38;2.40;;;;;;;23.96;54.10;102065.34;4967840;28;20019;-55
2022/05/18 09:51:22;;;;;;;6.72;3.35;;;;;;;24.06;54.63;102071.09;4967319;28;20033;-53
2022/05/18 09:53:48;;;;;;;7.43;3.70;;;;;;;24.09;54.52;102071.44;4972463;28;20022;-54
2022/05/18 09:56:21;;;;;;;7.28;3.85;;;;;;;24.12;54.32;102069.31;4973425;28;20035;-55
2022/05/18 09:58:50;;;;;;;7.47;4.28;;;;;;;24.23;54.25;102076.66;4966014;28;20027;-55
2022/05/18 10:09:51;;;;;;;7.68;3.17;;;;;;;24.08;53.24;102069.78;4971919;28;20135;-54
2022/05/18 10:12:19;;;;;;;6.50;2.30;;;;;;;24.27;53.17;102075.16;4971697;28;20113;-55
2022/05/18 10:14:51;;;;;;;4.80;2.40;;;;;;;24.67;53.71;102067.25;4970898;28;20623;-55
2022/05/18 10:17:21;;;;;;;4.55;1.70;;;;;;;24.92;52.63;102067.88;4969524;28;20492;-55
2022/05/18 10:20:00;;;;;;;4.22;2.08;;;;;;;25.05;51.77;102068.72;4970067;28;20022;-56
2022/05/18 10:22:30;;;;;;;3.05;1.40;;;;;;;24.94;49.90;102065.72;4970054;28;20496;-55
2022/05/18 10:25:23;;;;;;;7.55;3.15;;;;;;;25.10;50.91;102072.38;4969892;28;20496;-54
2022/05/18 10:27:49;;;;;;;7.03;3.63;;;;;;;25.14;50.53;102057.22;4968905;28;20161;-56
2022/05/18 10:30:30;;;;;;;3.45;1.88;;;;;;;25.10;50.50;102066.09;4972342;28;20508;-56
2022/05/18 10:33:03;;;;;;;4.18;2.30;;;;;;;25.10;50.12;102066.09;4970626;28;20066;-54
2022/05/18 10:35:47;;;;;;;5.15;2.00;;;;;;;25.22;49.96;102064.22;4972261;28;20492;-52
2022/05/18 10:38:24;;;;;;;5.63;1.95;;;;;;;25.37;49.39;102060.97;4970944;28;20041;-53
2022/05/18 10:40:55;;;;;;;3.22;1.88;;;;;;;25.63;49.87;102064.00;4969979;28;20022;-54
2022/05/18 10:43:30;;;;;;;4.22;2.25;;;;;;;25.82;49.47;102066.59;4972484;28;20027;-55
2022/05/18 10:46:01;;;;;;;5.03;2.47;;;;;;;25.64;48.60;102062.09;4969534;28;20034;-55
2022/05/18 10:48:30;;;;;;;4.38;2.40;;;;;;;25.60;48.50;102060.94;4971029;28;20031;-53
2022/05/18 10:51:02;;;;;;;5.65;2.63;;;;;;;25.45;48.60;102050.59;4972696;28;20026;-54
2022/05/18 10:53:32;;;;;;;4.10;3.08;;;;;;;25.52;48.70;102058.59;4971994;28;20046;-53
2022/05/18 10:55:57;;;;;;;5.70;2.90;;;;;;;25.46;48.53;102052.25;4971475;28;20027;-53
2022/05/18 10:58:31;;;;;;;4.70;2.33;;;;;;;25.46;48.62;102046.78;4969881;28;20480;-55
2022/05/18 11:01:01;;;;;;;4.90;2.45;;;;;;;25.47;48.37;102053.88;4970725;28;20030;-54
2022/05/18 11:03:32;;;;;;;5.00;2.58;;;;;;;25.50;48.08;102047.13;4971546;28;20074;-55
2022/05/18 11:06:10;;;;;;;5.85;2.28;;;;;;;25.58;48.42;102050.28;4964899;28;20511;-56
2022/05/18 11:08:36;;;;;;;8.68;2.40;;;;;;;25.52;48.26;102058.59;4968324;28;20035;-54
2022/05/18 11:11:24;;;;;;;5.82;2.65;;;;;;;25.43;48.49;102055.41;4965572;28;20037;-55
2022/05/18 11:14:17;;;;;;;3.97;2.45;;;;;;;25.55;48.50;102061.66;4967688;28;20109;-55
2022/05/18 11:16:57;;;;;;;3.83;2.28;;;;;;;25.52;48.68;102062.16;4973271;28;20015;-54
2022/05/18 11:19:35;;;;;;;5.55;2.70;;;;;;;25.61;48.52;102057.16;4969947;28;20065;-55
2022/05/18 11:22:17;;;;;;;5.78;2.50;;;;;;;25.69;48.81;102055.97;4965855;28;20023;-55
2022/05/18 11:25:01;;;;;;;5.90;3.15;;;;;;;25.77;48.29;102055.59;4970762;28;20562;-56
2022/05/18 11:27:50;;;;;;;6.22;2.70;;;;;;;26.00;48.06;102050.03;4968434;28;20030;-55
2022/05/18 11:30:44;;;;;;;7.55;2.95;;;;;;;26.14;47.98;102051.41;4970456;28;20038;-54
2022/05/18 11:33:22;;;;;;;6.70;3.47;;;;;;;26.20;47.94;102042.25;4969071;28;20033;-56
2022/05/18 11:36:01;;;;;;;4.55;2.60;;;;;;;26.66;47.87;102043.06;4969045;28;20033;-54
2022/05/18 11:38:56;;;;;;;4.88;2.80;;;;;;;26.53;46.42;102035.19;4971967;28;20029;-55
2022/05/18 11:41:24;;;;;;;6.05;2.80;;;;;;;26.39;46.83;102036.63;4968154;28;20034;-56
2022/05/18 11:44:01;;;;;;;4.90;2.60;;;;;;;26.40;46.71;102039.09;4968273;28;20027;-56
2022/05/18 11:46:38;;;;;;;6.78;2.95;;;;;;;26.65;47.80;102035.94;4970157;28;20485;-54